createdAt,value
2023-04-19T00:03:24.788Z,10.17
2023-04-19T00:07:07.578Z,9.50
2023-04-19T00:10:50.217Z,9.83
2023-04-19T00:14:34.150Z,9.67
2023-04-19T00:18:16.806Z,10.00
2023-04-19T00:21:59.425Z,9.93
2023-04-19T00:25:42.046Z,10.30
2023-04-19T00:29:24.840Z,9.40
2023-04-19T00:33:12.828Z,10.70
2023-04-19T00:36:55.744Z,9.90
2023-04-19T00:40:38.436Z,10.27
2023-04-19T00:44:21.074Z,10.53
2023-04-19T00:48:03.913Z,10.00
2023-04-19T00:51:48.224Z,10.33
2023-04-19T00:55:30.914Z,10.20
2023-04-19T00:59:14.223Z,10.63
2023-04-19T01:02:56.987Z,9.07
2023-04-19T01:06:40.346Z,10.80
2023-04-19T01:10:24.417Z,10.43
2023-04-19T01:14:07.061Z,10.10
2023-04-19T01:17:49.755Z,10.57
2023-04-19T01:21:32.543Z,10.67
2023-04-19T01:25:16.808Z,10.17
2023-04-19T01:28:59.414Z,11.37
2023-04-19T01:32:42.144Z,11.30
2023-04-19T01:36:24.803Z,10.80
2023-04-19T01:40:08.346Z,10.50
2023-04-19T01:43:52.327Z,11.20
2023-04-19T01:47:35.045Z,10.90
2023-04-19T01:51:18.111Z,11.37
2023-04-19T01:55:00.839Z,11.00
2023-04-19T01:58:43.454Z,11.50
2023-04-19T02:02:27.577Z,12.07
2023-04-19T02:06:12.871Z,12.20
2023-04-19T02:09:55.503Z,12.77
2023-04-19T02:13:38.565Z,12.70
2023-04-19T02:17:21.123Z,12.07
2023-04-19T02:21:05.417Z,13.07
2023-04-19T02:24:49.238Z,12.33
2023-04-19T02:28:31.905Z,13.07
2023-04-19T02:32:14.562Z,13.53
2023-04-19T02:35:57.165Z,14.17
2023-04-19T02:39:42.540Z,14.37
2023-04-19T02:43:25.209Z,14.70
2023-04-19T02:47:08.137Z,14.57
2023-04-19T02:50:50.822Z,14.97
2023-04-19T02:54:33.868Z,14.60
2023-04-19T02:58:18.119Z,14.07
2023-04-19T03:02:00.963Z,13.53
2023-04-19T03:05:43.673Z,14.40
2023-04-19T03:09:26.439Z,14.00
2023-04-19T03:13:09.199Z,15.13
2023-04-19T03:16:54.395Z,15.70
2023-04-19T03:20:37.166Z,15.90
2023-04-19T03:24:20.142Z,15.80
2023-04-19T03:28:02.868Z,17.37
2023-04-19T03:31:45.600Z,17.60
2023-04-19T03:35:30.920Z,17.23
2023-04-19T03:39:13.539Z,17.00
2023-04-19T03:42:56.208Z,18.27
2023-04-19T03:46:38.951Z,18.17
2023-04-19T03:50:21.602Z,19.07
2023-04-19T03:54:05.724Z,19.97
2023-04-19T03:57:48.323Z,19.53
2023-04-19T04:01:30.952Z,20.03
2023-04-19T04:05:13.677Z,19.70
2023-04-19T04:08:56.368Z,19.83
2023-04-19T04:12:40.377Z,20.47
2023-04-19T04:16:23.170Z,19.53
2023-04-19T04:20:07.766Z,19.60
2023-04-19T04:23:50.352Z,18.70
2023-04-19T04:27:33.247Z,20.13
2023-04-19T04:31:18.973Z,20.07
2023-04-19T04:35:01.664Z,19.63
2023-04-19T04:38:44.338Z,20.53
2023-04-19T04:42:27.601Z,19.30
2023-04-19T04:46:10.393Z,20.00
2023-04-19T04:49:54.431Z,19.67
2023-04-19T04:53:37.067Z,20.93
2023-04-19T04:57:19.707Z,19.47
2023-04-19T05:01:02.359Z,19.03
2023-04-19T05:04:45.499Z,19.07
2023-04-19T05:08:29.680Z,19.27
2023-04-19T05:12:12.603Z,17.90
2023-04-19T05:15:55.453Z,18.93
2023-04-19T05:19:38.109Z,19.30
2023-04-19T05:23:21.272Z,18.57
2023-04-19T05:27:05.364Z,19.00
2023-04-19T05:30:48.036Z,20.50
2023-04-19T05:34:30.632Z,20.07
2023-04-19T05:38:13.247Z,20.60
2023-04-19T05:41:55.966Z,20.10
2023-04-19T05:45:40.238Z,19.57
2023-04-19T05:49:22.891Z,20.37
2023-04-19T05:53:08.515Z,19.03
2023-04-19T05:56:51.220Z,19.67
2023-04-19T06:00:33.868Z,19.57
2023-04-19T06:04:18.323Z,20.00
2023-04-19T06:08:02.809Z,19.57
2023-04-19T06:11:50.962Z,19.50
2023-04-19T06:15:34.426Z,19.83
2023-04-19T06:19:18.438Z,20.00
2023-04-19T06:23:01.059Z,19.07
2023-04-19T06:26:43.641Z,20.13
2023-04-19T06:30:26.595Z,21.03
2023-04-19T06:34:10.312Z,20.87
2023-04-19T06:37:54.429Z,20.47
2023-04-19T06:41:37.132Z,21.00
2023-04-19T06:45:20.015Z,20.23
2023-04-19T06:49:02.791Z,20.33
2023-04-19T06:52:45.426Z,20.40
2023-04-19T06:56:45.391Z,18.87
2023-04-19T07:00:28.151Z,19.53
2023-04-19T07:04:11.418Z,18.13
2023-04-19T07:07:54.171Z,19.30
2023-04-19T07:11:36.931Z,17.87
2023-04-19T07:15:21.230Z,19.47
2023-04-19T07:19:04.242Z,20.07
2023-04-19T07:22:46.869Z,19.43
2023-04-19T07:26:29.596Z,18.67
2023-04-19T07:30:12.571Z,18.83
2023-04-19T07:33:56.588Z,19.53
2023-04-19T07:37:39.232Z,18.93
2023-04-19T07:41:22.148Z,18.60
2023-04-19T07:45:05.821Z,18.93
2023-04-19T07:48:48.607Z,18.50
2023-04-19T07:52:32.735Z,18.43
2023-04-19T07:56:15.571Z,18.80
2023-04-19T07:59:59.296Z,18.43
2023-04-19T08:03:42.182Z,18.43
2023-04-19T08:07:26.118Z,18.43
2023-04-19T08:11:10.136Z,18.63
2023-04-19T08:15:02.695Z,18.67
2023-04-19T08:18:53.799Z,18.00
2023-04-19T08:22:36.449Z,18.80
2023-04-19T08:26:20.487Z,19.43
2023-04-19T08:30:03.423Z,18.10
2023-04-19T08:33:46.066Z,19.13
2023-04-19T08:37:28.835Z,18.97
2023-04-19T08:41:13.560Z,18.90
2023-04-19T08:45:23.421Z,17.93
2023-04-19T08:49:01.538Z,19.37
2023-04-19T08:52:54.268Z,18.13
2023-04-19T08:56:39.970Z,19.07
2023-04-19T09:00:24.531Z,19.30
2023-04-19T09:07:54.414Z,19.13
2023-04-19T09:11:38.299Z,18.77
2023-04-19T09:15:38.207Z,18.33
2023-04-19T09:19:24.674Z,18.50
2023-04-19T09:23:09.136Z,18.43
2023-04-19T09:27:00.443Z,17.60
2023-04-19T09:31:02.305Z,17.50
2023-04-19T09:34:54.212Z,17.17
2023-04-19T09:38:48.250Z,17.40
2023-04-19T09:43:02.654Z,16.17
2023-04-19T09:46:53.549Z,17.03
2023-04-19T09:50:46.814Z,16.70
2023-04-19T09:54:36.701Z,17.73
2023-04-19T09:58:19.935Z,15.97
2023-04-19T10:02:04.193Z,31.43
2023-04-19T10:05:47.238Z,19.27
2023-04-19T10:09:30.037Z,18.03
2023-04-19T10:17:00.666Z,21.40
2023-04-19T10:21:01.030Z,19.80
2023-04-19T10:25:09.685Z,21.57
2023-04-19T10:28:52.385Z,17.30
2023-04-19T10:32:39.448Z,16.70
2023-04-19T10:36:23.595Z,17.30
2023-04-19T10:40:07.798Z,16.93
2023-04-19T10:44:10.626Z,16.70
2023-04-19T10:47:53.506Z,16.03
2023-04-19T10:51:38.933Z,17.07
2023-04-19T10:55:22.206Z,16.53
2023-04-19T10:59:22.913Z,16.37
2023-04-19T11:03:39.603Z,18.10
2023-04-19T11:07:23.782Z,16.43
2023-04-19T11:11:06.501Z,14.90
2023-04-19T11:14:50.482Z,15.03
2023-04-19T11:18:33.155Z,14.87
2023-04-19T11:22:15.839Z,15.20
2023-04-19T11:25:59.847Z,15.90
2023-04-19T11:29:42.537Z,16.43
2023-04-19T11:33:25.778Z,17.50
2023-04-19T11:37:08.419Z,16.77
2023-04-19T11:41:01.151Z,17.17
2023-04-19T11:44:50.058Z,17.03
2023-04-19T11:48:32.923Z,18.03
2023-04-19T11:52:21.774Z,16.77
2023-04-19T11:56:07.506Z,17.20
2023-04-19T12:00:05.514Z,16.90
2023-04-19T12:03:49.869Z,16.37
2023-04-19T12:07:32.639Z,16.70
2023-04-19T12:11:18.755Z,16.57
2023-04-19T12:15:01.386Z,17.73
2023-04-19T12:18:49.037Z,17.33
2023-04-19T12:22:31.833Z,17.83
2023-04-19T12:26:15.932Z,18.20
2023-04-19T12:29:58.635Z,18.13
2023-04-19T12:33:41.329Z,19.83
2023-04-19T12:37:24.475Z,19.80
2023-04-19T12:41:07.176Z,20.63
2023-04-19T12:44:51.136Z,17.53
2023-04-19T12:48:33.786Z,15.80
2023-04-19T12:52:16.414Z,15.10
2023-04-19T12:55:59.406Z,14.43
2023-04-19T12:59:42.027Z,14.93
2023-04-19T13:03:26.199Z,16.20
2023-04-19T13:07:09.022Z,16.20
2023-04-19T13:10:51.766Z,15.60
2023-04-19T13:14:34.648Z,16.40
2023-04-19T13:18:17.278Z,16.57
2023-04-19T13:22:01.243Z,16.63
2023-04-19T13:25:43.868Z,16.90
2023-04-19T13:29:26.484Z,18.20
2023-04-19T13:33:09.330Z,13.83
2023-04-19T13:36:51.985Z,14.57
2023-04-19T13:40:35.999Z,12.57
2023-04-19T13:44:18.980Z,12.10
2023-04-19T13:48:01.871Z,10.70
2023-04-19T13:51:50.230Z,10.83
2023-04-19T13:55:33.974Z,9.67
2023-04-19T13:59:17.966Z,10.43
2023-04-19T14:03:00.738Z,9.33
2023-04-19T14:06:44.379Z,8.40
2023-04-19T14:10:27.085Z,5.33
2023-04-19T14:14:09.721Z,4.57
2023-04-19T14:17:53.738Z,4.80
2023-04-19T14:21:36.401Z,2.40
2023-04-19T14:25:19.023Z,2.50
2023-04-19T14:29:01.692Z,2.53
2023-04-19T14:32:44.702Z,3.20
2023-04-19T14:36:28.861Z,2.57
2023-04-19T14:40:12.225Z,3.00
2023-04-19T14:43:56.138Z,2.67
2023-04-19T14:47:38.785Z,3.00
2023-04-19T14:51:21.466Z,3.40
2023-04-19T14:55:06.199Z,4.00
2023-04-19T14:58:48.873Z,3.87
2023-04-19T15:02:31.692Z,4.70
2023-04-19T15:06:14.521Z,3.43
2023-04-19T15:09:57.133Z,3.47
2023-04-19T15:13:42.783Z,3.73
2023-04-19T15:17:25.463Z,3.30
2023-04-19T15:21:08.127Z,4.10
2023-04-19T15:24:50.845Z,3.90
2023-04-19T15:28:36.019Z,4.60
2023-04-19T15:32:20.373Z,5.40
2023-04-19T15:36:03.692Z,4.93
2023-04-19T15:39:49.472Z,5.67
2023-04-19T15:43:32.110Z,5.27
2023-04-19T15:47:14.763Z,5.67
2023-04-19T15:50:59.005Z,6.10
2023-04-19T15:54:44.524Z,7.17
2023-04-19T15:58:27.172Z,5.80
2023-04-19T16:02:09.916Z,6.63
2023-04-19T16:05:52.617Z,6.27
2023-04-19T16:09:36.618Z,6.23
2023-04-19T16:13:19.264Z,6.77
2023-04-19T16:17:01.873Z,5.00
2023-04-19T16:20:44.533Z,3.90
2023-04-19T16:24:27.151Z,4.00
2023-04-19T16:28:14.223Z,4.07
2023-04-19T16:31:56.855Z,4.20
2023-04-19T16:35:39.555Z,4.40
2023-04-19T16:39:22.209Z,4.43
2023-04-19T16:43:06.214Z,4.63
2023-04-19T16:46:50.190Z,4.60
2023-04-19T16:50:32.849Z,5.00
2023-04-19T16:54:16.518Z,4.40
2023-04-19T16:57:59.126Z,4.17
2023-04-19T17:01:41.802Z,4.70
2023-04-19T17:05:25.932Z,4.33
2023-04-19T17:09:09.072Z,4.67
2023-04-19T17:12:51.700Z,4.33
2023-04-19T17:16:34.327Z,4.37
2023-04-19T17:20:16.957Z,4.40
2023-04-19T17:24:00.916Z,4.80
2023-04-19T17:27:43.728Z,4.10
2023-04-19T17:31:26.683Z,5.20
2023-04-19T17:35:10.042Z,6.17
2023-04-19T17:38:52.663Z,5.10
2023-04-19T17:42:36.688Z,5.03
2023-04-19T17:46:20.877Z,6.47
2023-04-19T17:50:07.965Z,4.13
2023-04-19T17:53:50.563Z,4.50
2023-04-19T17:57:34.203Z,4.57
2023-04-19T18:01:18.251Z,5.60
2023-04-19T18:05:00.944Z,4.87
2023-04-19T18:08:45.846Z,4.83
2023-04-19T18:12:28.573Z,5.87
2023-04-19T18:16:11.276Z,5.40
2023-04-19T18:19:55.297Z,5.07
2023-04-19T18:23:38.311Z,4.90
2023-04-19T18:27:20.914Z,4.93
2023-04-19T18:31:03.575Z,5.07
2023-04-19T18:34:47.351Z,4.67
2023-04-19T18:38:31.418Z,4.90
2023-04-19T18:42:14.101Z,4.60
2023-04-19T18:45:57.287Z,4.77
2023-04-19T18:49:40.377Z,4.93
2023-04-19T18:53:23.058Z,4.63
2023-04-19T18:57:22.669Z,4.50
2023-04-19T19:01:06.113Z,4.93
2023-04-19T19:04:57.011Z,4.70
2023-04-19T19:08:41.161Z,5.00
2023-04-19T19:12:27.950Z,4.77
2023-04-19T19:16:11.056Z,4.23
2023-04-19T19:19:54.043Z,4.93
2023-04-19T19:23:42.169Z,5.27
2023-04-19T19:27:26.906Z,5.20
2023-04-19T19:31:09.898Z,5.43
2023-04-19T19:34:56.349Z,5.17
2023-04-19T19:38:41.694Z,5.00
2023-04-19T19:42:24.849Z,4.63
2023-04-19T19:46:10.692Z,5.90
2023-04-19T19:50:43.707Z,4.90
2023-04-19T19:53:57.650Z,4.73
2023-04-19T20:01:28.108Z,4.47
2023-04-19T20:05:11.954Z,5.47
2023-04-19T20:08:57.250Z,4.80
2023-04-19T20:12:42.800Z,6.17
2023-04-19T20:16:27.212Z,4.93
2023-04-19T20:20:11.258Z,5.63
2023-04-19T20:23:54.046Z,5.97
2023-04-19T20:27:36.687Z,5.67
2023-04-19T20:31:19.458Z,6.23
2023-04-19T20:35:08.243Z,5.83
2023-04-19T20:38:51.195Z,6.03
2023-04-19T20:42:33.864Z,6.07
2023-04-19T20:46:16.740Z,5.60
2023-04-19T20:49:59.423Z,5.70
2023-04-19T20:53:43.469Z,5.00
2023-04-19T20:57:26.135Z,5.33
2023-04-19T21:01:11.715Z,5.10
2023-04-19T21:04:54.701Z,6.23
2023-04-19T21:08:37.340Z,5.77
2023-04-19T21:12:21.332Z,6.10
2023-04-19T21:16:04.436Z,5.70
2023-04-19T21:19:47.303Z,6.00
2023-04-19T21:23:30.025Z,6.33
2023-04-19T21:27:12.667Z,6.20
2023-04-19T21:30:57.595Z,6.40
2023-04-19T21:34:40.301Z,6.00
2023-04-19T21:38:23.043Z,7.40
2023-04-19T21:42:05.718Z,7.80
2023-04-19T21:45:48.336Z,7.67
2023-04-19T21:49:32.459Z,7.30
2023-04-19T21:53:15.198Z,8.33
2023-04-19T21:56:58.712Z,8.13
2023-04-19T22:00:41.544Z,8.20
2023-04-19T22:04:24.852Z,7.60
2023-04-19T22:08:08.894Z,7.03
2023-04-19T22:11:52.843Z,7.57
2023-04-19T22:15:36.351Z,7.47
2023-04-19T22:19:19.112Z,7.83
2023-04-19T22:23:01.930Z,7.90
2023-04-19T22:26:46.050Z,9.80
2023-04-19T22:30:28.781Z,7.83
2023-04-19T22:34:11.412Z,7.80
2023-04-19T22:37:54.278Z,8.43
2023-04-19T22:41:36.921Z,9.13
2023-04-19T22:45:21.025Z,6.90
2023-04-19T22:49:03.755Z,7.73
2023-04-19T22:52:46.425Z,7.43
2023-04-19T22:56:29.635Z,7.83
2023-04-19T23:00:13.183Z,7.80
2023-04-19T23:03:57.232Z,8.10
2023-04-19T23:07:41.863Z,7.37
2023-04-19T23:11:25.141Z,7.77
2023-04-19T23:15:10.944Z,8.27
2023-04-19T23:18:54.336Z,8.80
2023-04-19T23:22:38.915Z,8.60
2023-04-19T23:26:21.573Z,7.17
2023-04-19T23:30:05.071Z,7.60
2023-04-19T23:33:47.699Z,8.43
2023-04-19T23:37:30.593Z,8.03
2023-04-19T23:41:14.640Z,8.50
2023-04-19T23:44:57.394Z,8.30
2023-04-19T23:48:40.157Z,9.57
2023-04-19T23:52:23.081Z,9.47
2023-04-19T23:56:06.544Z,10.23
2023-04-19T23:59:51.337Z,11.43
